createdAt,value
2019-05-23T00:05:01.672Z,11.80
2019-05-23T00:10:07.432Z,11.70
2019-05-23T00:15:26.969Z,11.70
2019-05-23T00:20:30.562Z,11.70
2019-05-23T00:25:33.560Z,11.70
2019-05-23T00:30:44.480Z,11.70
2019-05-23T00:35:48.361Z,11.70
2019-05-23T00:40:52.571Z,11.70
2019-05-23T00:45:55.365Z,11.60
2019-05-23T00:50:59.393Z,11.60
2019-05-23T00:56:01.285Z,11.60
2019-05-23T01:01:04.111Z,11.60
2019-05-23T01:06:06.070Z,11.60
2019-05-23T01:11:08.866Z,11.50
2019-05-23T01:16:11.599Z,11.50
2019-05-23T01:21:27.128Z,11.50
2019-05-23T01:26:30.771Z,11.50
2019-05-23T01:31:32.588Z,11.40
2019-05-23T01:36:35.990Z,11.40
2019-05-23T01:41:38.337Z,11.40
2019-05-23T01:46:41.119Z,11.40
2019-05-23T01:51:43.216Z,11.30
2019-05-23T01:56:45.806Z,11.30
2019-05-23T02:01:47.608Z,11.30
2019-05-23T02:06:50.218Z,11.20
2019-05-23T02:11:52.313Z,11.20
2019-05-23T02:16:55.800Z,11.10
2019-05-23T02:21:58.139Z,11.10
2019-05-23T02:27:00.043Z,11.10
2019-05-23T02:32:02.992Z,11.10
2019-05-23T02:37:08.048Z,11.10
2019-05-23T02:42:14.651Z,11.00
2019-05-23T02:47:31.122Z,10.90
2019-05-23T02:52:41.782Z,11.00
2019-05-23T02:57:46.741Z,10.90
2019-05-23T03:02:50.995Z,10.80
2019-05-23T03:07:53.469Z,10.80
2019-05-23T03:12:58.057Z,10.80
2019-05-23T03:18:04.451Z,10.80
2019-05-23T03:23:11.774Z,10.70
2019-05-23T03:28:15.484Z,10.60
2019-05-23T03:33:19.520Z,10.60
2019-05-23T03:38:21.603Z,10.60
2019-05-23T03:43:23.859Z,10.60
2019-05-23T03:48:27.342Z,10.50
2019-05-23T03:53:31.217Z,10.50
2019-05-23T03:58:32.773Z,10.40
2019-05-23T04:03:39.881Z,10.40
2019-05-23T04:08:41.045Z,10.40
2019-05-23T04:13:43.535Z,10.40
2019-05-23T04:18:45.195Z,10.50
2019-05-23T04:23:46.900Z,10.50
2019-05-23T04:28:50.302Z,10.40
2019-05-23T04:33:52.559Z,10.40
2019-05-23T04:38:54.131Z,10.30
2019-05-23T04:43:55.650Z,10.50
2019-05-23T04:48:57.629Z,10.70
2019-05-23T04:54:00.133Z,10.80
2019-05-23T04:59:02.848Z,10.50
2019-05-23T05:04:05.900Z,10.40
2019-05-23T05:09:08.292Z,10.40
2019-05-23T05:14:09.898Z,10.40
2019-05-23T05:19:11.445Z,10.50
2019-05-23T05:24:13.034Z,10.30
2019-05-23T05:29:14.824Z,10.30
2019-05-23T05:34:16.782Z,10.20
2019-05-23T05:39:19.032Z,10.20
2019-05-23T05:44:20.974Z,10.10
2019-05-23T05:49:23.157Z,10.20
2019-05-23T05:54:24.719Z,10.30
2019-05-23T05:59:26.441Z,10.30
2019-05-23T06:04:28.840Z,10.60
2019-05-23T06:09:32.777Z,10.60
2019-05-23T06:14:34.725Z,10.80
2019-05-23T06:19:36.794Z,10.90
2019-05-23T06:24:46.920Z,10.90
2019-05-23T06:29:42.722Z,10.90
2019-05-23T06:34:44.734Z,10.90
2019-05-23T06:39:46.856Z,11.10
2019-05-23T06:44:48.830Z,11.40
2019-05-23T06:49:50.589Z,11.30
2019-05-23T06:54:52.625Z,11.30
2019-05-23T06:59:54.319Z,11.70
2019-05-23T07:04:56.150Z,11.80
2019-05-23T07:09:59.766Z,11.80
2019-05-23T07:15:02.380Z,12.00
2019-05-23T07:20:06.929Z,12.20
2019-05-23T07:25:08.904Z,12.30
2019-05-23T07:30:25.036Z,12.50
2019-05-23T07:35:26.976Z,12.50
2019-05-23T07:40:29.230Z,12.80
2019-05-23T07:45:39.837Z,12.90
2019-05-23T07:50:43.617Z,13.00
2019-05-23T07:55:47.319Z,13.20
2019-05-23T08:00:57.116Z,13.60
2019-05-23T08:05:58.711Z,13.50
2019-05-23T08:11:00.296Z,13.60
2019-05-23T08:16:02.036Z,13.50
2019-05-23T08:21:03.997Z,13.80
2019-05-23T08:26:05.791Z,14.00
2019-05-23T08:31:07.871Z,14.50
2019-05-23T08:36:09.615Z,14.40
2019-05-23T08:41:11.541Z,14.10
2019-05-23T08:46:14.678Z,14.30
2019-05-23T08:51:16.592Z,14.50
2019-05-23T08:56:19.750Z,14.40
2019-05-23T09:01:22.007Z,14.50
2019-05-23T09:06:23.799Z,14.70
2019-05-23T09:11:26.165Z,15.30
2019-05-23T09:16:28.340Z,14.70
2019-05-23T09:21:30.041Z,15.10
2019-05-23T09:26:31.925Z,15.40
2019-05-23T09:31:34.494Z,15.60
2019-05-23T09:36:36.249Z,16.00
2019-05-23T09:41:38.441Z,16.20
2019-05-23T09:46:40.201Z,16.00
2019-05-23T09:51:41.822Z,15.90
2019-05-23T09:56:43.398Z,16.40
2019-05-23T10:01:46.447Z,16.90
2019-05-23T10:06:48.070Z,17.30
2019-05-23T10:11:50.916Z,17.40
2019-05-23T10:16:52.776Z,17.50
2019-05-23T10:21:54.451Z,17.40
2019-05-23T10:26:56.348Z,17.50
2019-05-23T10:31:58.215Z,17.50
2019-05-23T10:37:00.225Z,18.10
2019-05-23T10:42:02.435Z,17.70
2019-05-23T10:47:04.189Z,18.20
2019-05-23T10:52:06.030Z,18.20
2019-05-23T10:57:08.002Z,18.20
2019-05-23T11:02:10.092Z,18.70
2019-05-23T11:07:12.477Z,18.80
2019-05-23T11:12:15.453Z,19.20
2019-05-23T11:17:17.933Z,19.80
2019-05-23T11:22:19.810Z,19.80
2019-05-23T11:27:23.527Z,20.00
2019-05-23T11:32:25.509Z,19.70
2019-05-23T11:37:27.537Z,19.70
2019-05-23T11:42:29.226Z,20.10
2019-05-23T11:47:32.259Z,20.40
2019-05-23T11:52:34.290Z,20.40
2019-05-23T11:57:37.943Z,20.10
2019-05-23T12:02:41.901Z,20.70
2019-05-23T12:07:44.228Z,20.70
2019-05-23T12:12:45.833Z,20.60
2019-05-23T12:17:47.541Z,20.50
2019-05-23T12:22:49.400Z,20.60
2019-05-23T12:27:51.251Z,21.40
2019-05-23T12:32:53.246Z,21.60
2019-05-23T12:37:54.866Z,20.80
2019-05-23T12:42:56.466Z,22.10
2019-05-23T12:48:02.970Z,21.70
2019-05-23T12:53:04.948Z,21.40
2019-05-23T12:58:06.751Z,22.20
2019-05-23T13:03:12.533Z,20.70
2019-05-23T13:08:14.579Z,20.20
2019-05-23T13:13:16.372Z,20.00
2019-05-23T13:18:17.870Z,20.10
2019-05-23T13:23:21.344Z,20.50
2019-05-23T13:28:23.181Z,20.70
2019-05-23T13:33:25.271Z,20.70
2019-05-23T13:38:26.848Z,20.90
2019-05-23T13:43:29.637Z,20.90
2019-05-23T13:48:31.555Z,20.70
2019-05-23T13:53:33.525Z,21.40
2019-05-23T13:58:36.608Z,20.80
2019-05-23T14:03:38.603Z,20.50
2019-05-23T14:08:40.301Z,20.20
2019-05-23T14:13:43.416Z,20.90
2019-05-23T14:18:45.683Z,20.80
2019-05-23T14:23:47.288Z,21.20
2019-05-23T14:28:49.945Z,20.60
2019-05-23T14:33:59.657Z,20.50
2019-05-23T14:39:03.169Z,21.00
2019-05-23T14:44:05.103Z,20.70
2019-05-23T14:49:08.703Z,20.60
2019-05-23T14:54:16.872Z,21.20
2019-05-23T14:59:19.444Z,21.00
2019-05-23T15:04:22.424Z,20.00
2019-05-23T15:09:24.365Z,20.90
2019-05-23T15:14:26.491Z,21.30
2019-05-23T15:19:41.815Z,21.40
2019-05-23T15:24:32.473Z,21.00
2019-05-23T15:29:34.161Z,20.80
2019-05-23T15:34:36.183Z,21.10
2019-05-23T15:39:38.426Z,21.30
2019-05-23T15:44:40.069Z,21.00
2019-05-23T15:49:43.758Z,21.20
2019-05-23T15:54:53.101Z,20.60
2019-05-23T15:59:59.350Z,20.90
2019-05-23T16:05:02.420Z,20.90
2019-05-23T16:10:06.633Z,20.90
2019-05-23T16:15:09.122Z,20.80
2019-05-23T16:20:11.281Z,20.00
2019-05-23T16:25:13.266Z,20.20
2019-05-23T16:30:15.385Z,20.50
2019-05-23T16:35:17.292Z,20.60
2019-05-23T16:40:18.995Z,20.40
2019-05-23T16:45:20.908Z,20.20
2019-05-23T16:50:22.512Z,19.90
2019-05-23T16:55:43.204Z,19.20
2019-05-23T17:00:46.976Z,19.10
2019-05-23T17:06:07.237Z,19.00
2019-05-23T17:11:14.165Z,18.80
2019-05-23T17:16:15.979Z,18.60
2019-05-23T17:21:24.064Z,18.60
2019-05-23T17:26:34.951Z,18.60
2019-05-23T17:31:41.692Z,18.40
2019-05-23T17:36:43.354Z,18.40
2019-05-23T17:41:45.176Z,18.20
2019-05-23T17:46:46.805Z,18.00
2019-05-23T17:51:48.418Z,17.80
2019-05-23T17:56:50.263Z,17.70
2019-05-23T18:01:52.052Z,17.40
2019-05-23T18:06:53.734Z,17.30
2019-05-23T18:11:57.305Z,17.10
2019-05-23T18:16:59.427Z,16.80
2019-05-23T18:22:02.346Z,16.50
2019-05-23T18:27:08.096Z,16.40
2019-05-23T18:32:15.923Z,16.00
2019-05-23T18:37:42.751Z,15.80
2019-05-23T18:42:45.753Z,15.50
2019-05-23T18:47:47.529Z,15.30
2019-05-23T18:52:51.831Z,15.00
2019-05-23T18:57:53.334Z,14.80
2019-05-23T19:02:56.204Z,14.60
2019-05-23T19:07:57.924Z,14.40
2019-05-23T19:12:59.899Z,14.20
2019-05-23T19:18:01.885Z,14.00
2019-05-23T19:23:04.248Z,13.80
2019-05-23T19:28:07.159Z,13.60
2019-05-23T19:33:09.707Z,13.60
2019-05-23T19:38:11.535Z,13.40
2019-05-23T19:43:15.117Z,13.30
2019-05-23T19:48:18.051Z,13.20
2019-05-23T19:53:19.932Z,12.90
2019-05-23T19:58:22.147Z,12.90
2019-05-23T20:03:24.783Z,12.70
2019-05-23T20:08:26.930Z,12.70
2019-05-23T20:13:28.988Z,12.50
2019-05-23T20:18:30.959Z,12.60
2019-05-23T20:23:32.643Z,12.50
2019-05-23T20:28:34.632Z,12.40
2019-05-23T20:33:36.475Z,12.40
2019-05-23T20:38:38.279Z,12.20
2019-05-23T20:43:40.074Z,12.10
2019-05-23T20:48:42.227Z,12.10
2019-05-23T20:53:44.160Z,12.00
2019-05-23T20:58:45.827Z,11.90
2019-05-23T21:03:48.787Z,11.70
2019-05-23T21:08:50.799Z,11.60
2019-05-23T21:13:52.597Z,11.50
2019-05-23T21:18:59.826Z,11.40
2019-05-23T21:24:01.685Z,11.30
2019-05-23T21:29:03.574Z,11.10
2019-05-23T21:34:05.463Z,11.00
2019-05-23T21:39:09.411Z,11.00
2019-05-23T21:44:11.182Z,10.80
2019-05-23T21:49:16.301Z,10.70
2019-05-23T21:54:18.775Z,10.70
2019-05-23T21:59:20.899Z,10.50
2019-05-23T22:04:28.376Z,10.40
2019-05-23T22:09:30.668Z,10.30
2019-05-23T22:14:33.009Z,10.20
2019-05-23T22:19:36.029Z,10.20
2019-05-23T22:24:37.720Z,10.10
2019-05-23T22:29:39.329Z,10.00
2019-05-23T22:34:43.067Z,9.90
2019-05-23T22:39:44.867Z,9.80
2019-05-23T22:44:46.767Z,9.90
2019-05-23T22:49:48.274Z,9.80
2019-05-23T22:54:50.014Z,9.60
2019-05-23T22:59:51.549Z,9.50
2019-05-23T23:04:53.396Z,9.60
2019-05-23T23:09:54.895Z,9.50
2019-05-23T23:14:56.456Z,9.30
2019-05-23T23:19:58.457Z,9.20
2019-05-23T23:24:59.990Z,9.20
2019-05-23T23:30:02.383Z,9.10
2019-05-23T23:35:05.138Z,9.20
2019-05-23T23:40:08.075Z,9.10
2019-05-23T23:45:28.769Z,9.00
2019-05-23T23:50:49.114Z,8.90
2019-05-23T23:56:09.736Z,9.00
